Time;durP1;ratioP1;P1;durP2;ratioP2;P2;SDS_P1;SDS_P2;PMS_P1;PMS_P2;Temp;Humidity;BMP_temperature;BMP_pressure;BME280_temperature;BME280_humidity;BME280_pressure;Samples;Min_cycle;Max_cycle;Signal;HPM_P1;HPM_P2
2023/06/18 00:01:16;;;;;;;6.25;3.67;;;;;;;14.42;100.00;98516.44;4485448;32;20620;-63
2023/06/18 00:03:43;;;;;;;6.90;3.83;;;;;;;14.34;100.00;98504.91;4485458;31;20092;-63
2023/06/18 00:06:11;;;;;;;5.93;3.97;;;;;;;14.32;100.00;98511.34;4485482;32;20100;-64
2023/06/18 00:08:38;;;;;;;6.68;4.18;;;;;;;14.28;100.00;98513.50;4485475;32;20084;-63
2023/06/18 00:11:05;;;;;;;6.90;4.30;;;;;;;14.23;100.00;98507.91;4485184;32;20148;-63
2023/06/18 00:13:32;;;;;;;5.93;4.07;;;;;;;14.22;100.00;98514.16;4485689;31;20088;-63
2023/06/18 00:15:59;;;;;;;11.07;4.00;;;;;;;14.15;100.00;98511.34;4485304;31;20153;-63
2023/06/18 00:18:27;;;;;;;6.78;4.00;;;;;;;14.17;100.00;98508.56;4485295;32;20096;-63
2023/06/18 00:20:54;;;;;;;9.82;4.78;;;;;;;14.11;100.00;98502.16;4485236;32;20115;-63
2023/06/18 00:23:21;;;;;;;6.85;4.37;;;;;;;14.13;100.00;98496.72;4485290;31;20394;-63
2023/06/18 00:25:48;;;;;;;10.32;4.25;;;;;;;14.13;100.00;98500.19;4485332;32;20131;-63
2023/06/18 00:28:15;;;;;;;8.52;4.50;;;;;;;14.17;100.00;98506.75;4485198;32;20096;-63
2023/06/18 00:30:43;;;;;;;6.47;3.90;;;;;;;14.18;100.00;98505.75;4485043;32;20127;-63
2023/06/18 00:33:10;;;;;;;9.25;4.70;;;;;;;14.31;100.00;98501.81;4485202;32;20500;-63
2023/06/18 00:35:39;;;;;;;6.18;4.00;;;;;;;14.40;100.00;98505.22;4484066;32;20076;-63
2023/06/18 00:38:06;;;;;;;5.47;4.05;;;;;;;14.42;100.00;98500.63;4485181;31;20088;-63
2023/06/18 00:40:33;;;;;;;5.82;3.62;;;;;;;14.49;100.00;98502.41;4485222;31;20119;-63
2023/06/18 00:43:03;;;;;;;5.97;4.20;;;;;;;14.46;100.00;98509.81;4485089;32;20088;-63
2023/06/18 00:45:30;;;;;;;6.62;3.85;;;;;;;14.46;100.00;98508.03;4485023;32;20122;-63
2023/06/18 00:47:58;;;;;;;5.68;3.90;;;;;;;14.41;100.00;98504.25;4485111;32;20124;-63
2023/06/18 00:50:26;;;;;;;6.15;4.15;;;;;;;14.41;100.00;98505.06;4485331;32;20172;-63
2023/06/18 00:52:59;;;;;;;5.55;4.37;;;;;;;14.38;100.00;98500.13;4485215;31;20104;-63
2023/06/18 00:55:31;;;;;;;7.17;4.33;;;;;;;14.42;100.00;98505.91;4485047;31;20433;-63
2023/06/18 00:57:59;;;;;;;6.90;4.20;;;;;;;14.36;100.00;98513.47;4485007;31;20084;-63
2023/06/18 01:00:28;;;;;;;6.03;4.12;;;;;;;14.32;100.00;98506.91;4484931;31;20434;-63
2023/06/18 01:02:59;;;;;;;7.15;4.25;;;;;;;14.28;100.00;98516.13;4485058;32;20186;-63
2023/06/18 01:05:31;;;;;;;6.93;4.22;;;;;;;14.25;100.00;98505.94;4483800;32;20114;-63
2023/06/18 01:08:00;;;;;;;8.68;4.57;;;;;;;14.20;100.00;98505.59;4485008;31;20084;-63
2023/06/18 01:10:30;;;;;;;6.82;4.75;;;;;;;14.18;100.00;98507.56;4484937;31;20101;-63
2023/06/18 01:12:58;;;;;;;8.85;4.45;;;;;;;14.21;100.00;98501.97;4484725;31;20514;-63
2023/06/18 01:15:26;;;;;;;8.68;4.43;;;;;;;14.18;100.00;98502.31;4484739;31;20497;-63
2023/06/18 01:17:56;;;;;;;7.68;4.30;;;;;;;14.19;100.00;98498.69;4483576;32;20107;-63
2023/06/18 01:20:26;;;;;;;8.27;4.72;;;;;;;14.25;100.00;98494.56;4483903;32;20115;-63
2023/06/18 01:23:01;;;;;;;7.28;4.43;;;;;;;14.20;100.00;98508.22;4483599;32;20496;-63
2023/06/18 01:25:33;;;;;;;8.57;4.22;;;;;;;14.25;100.00;98500.66;4484840;31;20371;-63
2023/06/18 01:28:07;;;;;;;5.95;3.67;;;;;;;14.22;100.00;98501.00;4484714;31;20108;-63
2023/06/18 01:30:39;;;;;;;5.90;4.00;;;;;;;14.22;100.00;98498.34;4484648;31;20116;-63
2023/06/18 01:33:12;;;;;;;6.22;4.47;;;;;;;14.25;100.00;98505.94;4484979;31;20087;-63
2023/06/18 01:35:39;;;;;;;5.87;3.83;;;;;;;14.20;100.00;98509.06;4484664;31;20099;-63
2023/06/18 01:38:13;;;;;;;6.25;4.37;;;;;;;14.16;100.00;98507.75;4484626;32;20096;-63
2023/06/18 01:40:47;;;;;;;8.90;4.57;;;;;;;14.12;100.00;98508.25;4484499;31;20119;-63
2023/06/18 01:43:26;;;;;;;7.57;4.37;;;;;;;14.12;100.00;98511.69;4484686;31;20107;-63
2023/06/18 01:45:57;;;;;;;7.35;4.43;;;;;;;14.10;100.00;98507.59;4484610;31;20627;-63
2023/06/18 01:48:26;;;;;;;6.32;4.20;;;;;;;14.12;100.00;98509.06;4485192;32;20088;-63
2023/06/18 01:50:55;;;;;;;7.55;3.95;;;;;;;14.07;100.00;98506.09;4485107;32;20184;-63
2023/06/18 01:53:23;;;;;;;7.37;4.72;;;;;;;14.11;100.00;98504.78;4485148;32;20211;-63
2023/06/18 01:55:52;;;;;;;7.25;4.18;;;;;;;14.10;100.00;98512.88;4486284;31;20119;-63
2023/06/18 01:58:21;;;;;;;7.35;4.15;;;;;;;14.12;100.00;98510.88;4486166;31;20084;-63
2023/06/18 02:00:51;;;;;;;9.65;4.20;;;;;;;14.20;100.00;98516.97;4486447;31;20616;-63
2023/06/18 02:03:19;;;;;;;5.75;4.10;;;;;;;14.19;100.00;98506.59;4486205;31;20126;-63
2023/06/18 02:05:47;;;;;;;7.85;4.28;;;;;;;14.21;100.00;98509.88;4486297;31;20096;-63
2023/06/18 02:08:14;;;;;;;7.12;3.72;;;;;;;14.26;100.00;98518.12;4485950;31;20145;-63
2023/06/18 02:10:42;;;;;;;6.70;3.87;;;;;;;14.31;100.00;98514.97;4486315;32;20480;-63
2023/06/18 02:13:10;;;;;;;8.52;4.20;;;;;;;14.33;100.00;98519.06;4486183;31;20096;-63
2023/06/18 02:15:37;;;;;;;8.68;4.22;;;;;;;14.28;100.00;98518.75;4484695;32;20084;-63
2023/06/18 02:18:04;;;;;;;5.70;4.12;;;;;;;14.29;100.00;98523.06;4486448;31;20131;-63
2023/06/18 02:20:34;;;;;;;8.57;4.50;;;;;;;14.28;100.00;98518.75;4486027;32;20514;-63
2023/06/18 02:23:01;;;;;;;6.62;3.95;;;;;;;14.30;100.00;98516.78;4486252;31;20134;-63
2023/06/18 02:25:32;;;;;;;5.75;4.03;;;;;;;14.27;100.00;98519.75;4486040;32;20513;-63
2023/06/18 02:28:00;;;;;;;8.07;4.28;;;;;;;14.24;100.00;98520.09;4486279;31;20107;-63
2023/06/18 02:30:31;;;;;;;7.03;4.25;;;;;;;14.14;100.00;98515.00;4485930;31;20407;-63
2023/06/18 02:33:00;;;;;;;7.03;4.53;;;;;;;14.10;100.00;98518.12;4486113;31;20622;-63
2023/06/18 02:35:29;;;;;;;7.62;4.32;;;;;;;14.09;100.00;98519.94;4486037;31;20081;-63
2023/06/18 02:37:57;;;;;;;6.85;4.00;;;;;;;14.10;100.00;98523.41;4485984;32;20084;-63
2023/06/18 02:40:25;;;;;;;8.75;4.75;;;;;;;14.04;100.00;98526.69;4486212;31;20798;-63
2023/06/18 02:42:53;;;;;;;6.93;4.40;;;;;;;13.98;100.00;98521.09;4486374;31;20226;-63
2023/06/18 02:45:21;;;;;;;9.98;4.20;;;;;;;13.98;100.00;98525.53;4485788;31;20078;-63
2023/06/18 02:47:50;;;;;;;7.57;3.90;;;;;;;13.96;100.00;98523.06;4485929;31;20110;-63
2023/06/18 02:50:19;;;;;;;6.00;4.37;;;;;;;13.97;100.00;98529.16;4486038;32;20469;-63
2023/06/18 02:52:46;;;;;;;7.22;4.80;;;;;;;13.98;100.00;98530.81;4486108;32;20522;-63
2023/06/18 02:55:14;;;;;;;7.32;4.50;;;;;;;13.98;100.00;98536.88;4485778;32;20437;-63
2023/06/18 02:57:42;;;;;;;6.00;4.50;;;;;;;13.92;100.00;98534.09;4485440;31;20141;-63
2023/06/18 03:00:11;;;;;;;7.22;4.70;;;;;;;13.89;100.00;98547.59;4486106;31;20093;-63
2023/06/18 03:02:43;;;;;;;7.87;4.43;;;;;;;13.81;100.00;98545.78;4486191;32;20138;-63
2023/06/18 03:05:11;;;;;;;7.12;4.15;;;;;;;13.83;100.00;98546.44;4485986;31;20462;-64
2023/06/18 03:07:39;;;;;;;5.80;4.28;;;;;;;13.84;100.00;98545.47;4486011;32;20123;-63
2023/06/18 03:10:08;;;;;;;6.85;4.07;;;;;;;13.89;100.00;98548.41;4485638;31;20146;-63
2023/06/18 03:12:36;;;;;;;5.10;3.50;;;;;;;13.84;100.00;98548.91;4486094;31;20798;-63
2023/06/18 03:15:05;;;;;;;5.97;4.00;;;;;;;13.83;100.00;98551.69;4486091;31;20114;-63
2023/06/18 03:17:33;;;;;;;6.05;3.78;;;;;;;13.83;100.00;98552.50;4486079;31;20146;-63
2023/06/18 03:20:03;;;;;;;7.47;4.10;;;;;;;13.98;100.00;98550.06;4485900;32;20096;-63
2023/06/18 03:22:32;;;;;;;8.57;4.00;;;;;;;14.23;100.00;98552.72;4485923;31;20480;-63
2023/06/18 03:25:00;;;;;;;7.07;4.10;;;;;;;14.51;100.00;98554.97;4485823;32;20151;-64
2023/06/18 03:27:28;;;;;;;6.95;4.28;;;;;;;14.69;100.00;98555.63;4485862;31;20164;-63
2023/06/18 03:29:55;;;;;;;6.40;4.68;;;;;;;14.69;100.00;98554.81;4485753;32;20164;-63
2023/06/18 03:32:24;;;;;;;7.43;4.45;;;;;;;14.84;100.00;98560.19;4485919;31;20470;-64
2023/06/18 03:34:52;;;;;;;6.53;4.90;;;;;;;14.83;100.00;98561.19;4485670;32;20119;-63
2023/06/18 03:37:20;;;;;;;8.40;4.68;;;;;;;14.89;100.00;98566.59;4485915;32;20149;-63
2023/06/18 03:39:47;;;;;;;5.62;4.03;;;;;;;14.88;100.00;98558.84;4485352;31;20108;-64
2023/06/18 03:42:15;;;;;;;7.12;4.30;;;;;;;14.98;100.00;98553.41;4485790;31;20114;-63
2023/06/18 03:44:42;;;;;;;5.93;4.03;;;;;;;15.05;100.00;98554.34;4485671;31;20092;-63
2023/06/18 03:47:10;;;;;;;7.07;3.70;;;;;;;15.15;100.00;98562.06;4485503;32;20084;-63
2023/06/18 03:49:38;;;;;;;8.93;4.28;;;;;;;15.07;100.00;98552.37;4484579;32;20469;-63
2023/06/18 03:52:05;;;;;;;7.57;4.30;;;;;;;15.15;100.00;98562.06;4485760;31;20096;-63
2023/06/18 03:54:32;;;;;;;6.90;3.55;;;;;;;15.10;100.00;98556.47;4485635;31;20123;-63
2023/06/18 03:57:01;;;;;;;5.15;3.40;;;;;;;15.16;100.00;98561.88;4485852;31;20122;-63
2023/06/18 03:59:29;;;;;;;4.47;3.50;;;;;;;15.27;100.00;98556.22;4486005;31;20132;-64
2023/06/18 04:01:57;;;;;;;6.12;3.42;;;;;;;15.32;100.00;98561.00;4485849;31;20111;-63
2023/06/18 04:04:25;;;;;;;7.05;3.70;;;;;;;15.34;100.00;98564.28;4485931;31;20438;-63
2023/06/18 04:06:53;;;;;;;5.45;3.67;;;;;;;15.41;100.00;98557.31;4485408;32;20116;-63
2023/06/18 04:09:20;;;;;;;5.68;3.80;;;;;;;15.52;100.00;98566.66;4484762;32;20787;-63
2023/06/18 04:11:48;;;;;;;6.45;3.97;;;;;;;15.60;100.00;98563.16;4485466;31;20096;-63
2023/06/18 04:14:15;;;;;;;6.62;3.15;;;;;;;15.72;100.00;98569.66;4485445;31;20160;-63
2023/06/18 04:16:43;;;;;;;4.97;3.35;;;;;;;15.77;100.00;98569.97;4485347;31;20438;-63
2023/06/18 04:19:10;;;;;;;4.25;3.15;;;;;;;15.89;100.00;98572.22;4485495;32;20164;-63
2023/06/18 04:21:38;;;;;;;4.95;3.22;;;;;;;15.95;100.00;98568.87;4485654;31;20100;-63
2023/06/18 04:24:06;;;;;;;5.50;3.15;;;;;;;15.99;100.00;98582.56;4485417;31;20096;-63
2023/06/18 04:26:34;;;;;;;5.65;3.50;;;;;;;15.96;100.00;98568.72;4485659;31;20116;-63
2023/06/18 04:29:01;;;;;;;13.02;3.90;;;;;;;15.99;100.00;98566.69;4485484;32;20499;-63
2023/06/18 04:31:29;;;;;;;7.25;3.80;;;;;;;15.95;100.00;98572.34;4485440;31;20148;-63
2023/06/18 04:33:56;;;;;;;7.28;4.45;;;;;;;16.05;100.00;98569.47;4485304;32;20081;-64
2023/06/18 04:36:24;;;;;;;4.75;3.37;;;;;;;16.10;100.00;98576.88;4485321;31;20465;-63
2023/06/18 04:38:51;;;;;;;6.68;4.00;;;;;;;16.25;100.00;98580.38;4485544;32;20117;-63
2023/06/18 04:41:19;;;;;;;5.45;3.30;;;;;;;16.35;100.00;98574.00;4485410;31;20430;-63
2023/06/18 04:43:46;;;;;;;5.78;3.83;;;;;;;16.38;100.00;98581.56;4485305;32;20164;-63
2023/06/18 04:46:14;;;;;;;11.63;3.83;;;;;;;16.53;100.00;98578.97;4485242;31;20471;-63
2023/06/18 04:48:42;;;;;;;4.78;3.47;;;;;;;16.62;100.00;98593.75;4485130;32;20097;-64
2023/06/18 04:51:09;;;;;;;6.20;4.32;;;;;;;16.75;100.00;98591.31;4485137;32;20100;-63
2023/06/18 04:53:37;;;;;;;6.80;3.80;;;;;;;16.87;100.00;98585.63;4485105;32;20092;-63
2023/06/18 04:56:05;;;;;;;5.47;3.60;;;;;;;16.96;100.00;98598.56;4485021;31;20096;-63
2023/06/18 04:58:36;;;;;;;5.15;3.33;;;;;;;17.14;100.00;98592.09;4485496;32;20589;-63
2023/06/18 05:01:04;;;;;;;5.50;3.50;;;;;;;17.17;100.00;98595.19;4485353;31;20096;-63
2023/06/18 05:03:31;;;;;;;5.93;3.50;;;;;;;17.19;100.00;98606.41;4485350;32;20154;-64
2023/06/18 05:05:58;;;;;;;4.45;3.22;;;;;;;17.33;100.00;98606.56;4485249;32;20446;-63
2023/06/18 05:08:27;;;;;;;4.47;3.22;;;;;;;17.41;100.00;98603.84;4485163;32;20164;-64
2023/06/18 05:10:55;;;;;;;5.25;3.30;;;;;;;17.53;100.00;98605.00;4484874;32;20803;-64
2023/06/18 05:13:22;;;;;;;4.57;3.37;;;;;;;17.64;100.00;98614.28;4485133;32;20112;-63
2023/06/18 05:15:49;;;;;;;5.93;3.80;;;;;;;17.59;100.00;98614.00;4484784;32;20126;-63
2023/06/18 05:18:17;;;;;;;5.93;3.60;;;;;;;17.67;100.00;98621.03;4484894;32;20158;-64
2023/06/18 05:20:44;;;;;;;4.37;3.42;;;;;;;17.69;100.00;98627.78;4484091;32;20084;-64
2023/06/18 05:23:12;;;;;;;5.75;3.97;;;;;;;17.66;100.00;98622.03;4484858;31;20088;-63
2023/06/18 05:25:39;;;;;;;7.47;4.15;;;;;;;17.62;100.00;98626.06;4485043;31;20207;-63
2023/06/18 05:28:07;;;;;;;5.05;3.85;;;;;;;17.55;100.00;98631.28;4484715;31;20084;-64
2023/06/18 05:30:34;;;;;;;6.07;3.78;;;;;;;17.63;100.00;98627.72;4482244;31;79102;-64
2023/06/18 05:33:02;;;;;;;6.05;3.60;;;;;;;17.69;100.00;98627.78;4484652;32;20542;-64
2023/06/18 05:35:29;;;;;;;9.48;3.65;;;;;;;17.83;100.00;98638.53;4484856;31;20084;-64
2023/06/18 05:37:57;;;;;;;5.65;3.72;;;;;;;17.90;99.91;98634.16;4484691;32;20104;-64
2023/06/18 05:40:24;;;;;;;5.32;3.50;;;;;;;18.05;99.88;98637.56;4484789;32;20216;-63
2023/06/18 05:42:52;;;;;;;5.30;4.20;;;;;;;18.19;97.57;98638.53;4484628;32;20394;-64
2023/06/18 05:45:19;;;;;;;7.57;3.92;;;;;;;18.26;97.97;98642.06;4484802;32;20100;-64
2023/06/18 05:47:47;;;;;;;5.20;3.58;;;;;;;18.38;98.10;98644.19;4484636;32;20096;-64
2023/06/18 05:50:17;;;;;;;4.65;3.65;;;;;;;18.51;94.68;98646.97;4484735;31;20114;-64
2023/06/18 05:52:45;;;;;;;4.78;3.20;;;;;;;18.65;92.23;98647.06;4484518;31;20141;-64
2023/06/18 05:55:13;;;;;;;5.62;3.15;;;;;;;18.83;90.10;98650.06;4484563;32;20092;-64
2023/06/18 05:57:42;;;;;;;4.15;3.10;;;;;;;18.97;88.30;98646.53;4484489;31;20485;-64
2023/06/18 06:00:11;;;;;;;4.35;3.30;;;;;;;19.13;88.23;98652.53;4484500;31;20172;-64
2023/06/18 06:02:39;;;;;;;6.20;3.40;;;;;;;19.21;84.69;98655.03;4484278;31;20110;-64
2023/06/18 06:05:09;;;;;;;5.22;3.37;;;;;;;19.35;84.56;98657.75;4484437;32;20088;-64
2023/06/18 06:07:36;;;;;;;5.70;3.65;;;;;;;19.43;84.31;98665.59;4484150;31;20119;-64
2023/06/18 06:10:03;;;;;;;4.22;3.37;;;;;;;19.38;80.28;98663.53;4483871;32;20211;-64
2023/06/18 06:12:31;;;;;;;3.72;3.25;;;;;;;19.51;80.31;98662.75;4484428;31;20138;-64
2023/06/18 06:14:58;;;;;;;4.47;3.30;;;;;;;19.60;80.79;98664.22;4484344;32;20123;-64
2023/06/18 06:17:25;;;;;;;3.87;3.03;;;;;;;19.78;79.13;98668.22;4484042;32;20165;-64
2023/06/18 06:19:53;;;;;;;5.87;3.50;;;;;;;19.73;77.72;98666.13;4483900;32;20103;-64
2023/06/18 06:22:21;;;;;;;6.47;3.40;;;;;;;19.73;80.09;98666.13;4484088;32;20092;-64
2023/06/18 06:24:48;;;;;;;6.35;3.20;;;;;;;19.71;82.18;98667.34;4484000;32;20160;-64
2023/06/18 06:27:16;;;;;;;4.47;3.50;;;;;;;19.78;81.13;98669.03;4484166;32;20151;-64
2023/06/18 06:29:43;;;;;;;5.03;3.55;;;;;;;19.91;85.03;98665.59;4484019;31;20122;-64
2023/06/18 06:32:11;;;;;;;4.47;3.37;;;;;;;19.85;78.68;98663.75;4483715;32;20172;-64
2023/06/18 06:34:38;;;;;;;5.40;3.80;;;;;;;19.86;83.63;98665.38;4485662;32;20122;-64
2023/06/18 06:37:06;;;;;;;5.50;3.65;;;;;;;20.00;83.47;98669.72;4486242;31;20148;-64
2023/06/18 06:39:34;;;;;;;6.72;4.03;;;;;;;20.03;85.70;98674.63;4486353;31;20113;-64
2023/06/18 06:42:03;;;;;;;5.82;3.78;;;;;;;20.01;80.15;98679.31;4486088;31;20092;-64
2023/06/18 06:44:30;;;;;;;5.57;3.50;;;;;;;19.89;80.60;98667.63;4486336;31;20457;-64
2023/06/18 06:47:02;;;;;;;4.78;3.60;;;;;;;20.05;80.32;98681.59;4486008;31;20160;-64
2023/06/18 06:49:32;;;;;;;6.25;3.55;;;;;;;20.07;78.45;98676.88;4486389;32;20149;-64
2023/06/18 06:52:01;;;;;;;5.03;3.70;;;;;;;20.20;79.98;98677.72;4485956;32;20115;-64
2023/06/18 06:54:28;;;;;;;4.82;3.42;;;;;;;20.19;77.41;98678.75;4485955;31;20085;-64
2023/06/18 06:56:55;;;;;;;4.87;3.40;;;;;;;20.28;80.90;98673.25;4485946;32;20115;-64
2023/06/18 06:59:22;;;;;;;5.40;4.22;;;;;;;20.41;81.51;98677.75;4485982;32;20119;-64
2023/06/18 07:01:50;;;;;;;4.93;3.85;;;;;;;20.36;82.91;98673.03;4485631;32;20456;-64
2023/06/18 07:04:17;;;;;;;5.90;3.95;;;;;;;20.36;79.97;98675.72;4485885;31;20141;-64
2023/06/18 07:06:44;;;;;;;8.20;4.50;;;;;;;20.41;81.79;98678.59;4485629;32;20117;-64
2023/06/18 07:09:11;;;;;;;6.25;4.12;;;;;;;20.39;85.80;98677.97;4485919;32;20188;-64
2023/06/18 07:11:40;;;;;;;5.57;3.97;;;;;;;20.52;86.91;98679.84;4485932;31;20109;-64
2023/06/18 07:14:07;;;;;;;5.37;3.85;;;;;;;20.63;82.26;98670.41;4485658;31;20116;-64
2023/06/18 07:16:35;;;;;;;5.80;4.22;;;;;;;20.65;78.99;98663.91;4485657;31;20443;-64
2023/06/18 07:19:02;;;;;;;7.00;3.90;;;;;;;20.48;80.59;98676.75;4485629;31;20084;-64
2023/06/18 07:21:29;;;;;;;6.82;4.30;;;;;;;20.41;80.90;98669.78;4485630;32;20153;-64
2023/06/18 07:23:57;;;;;;;7.95;4.20;;;;;;;20.58;84.63;98679.00;4485714;31;20163;-64
2023/06/18 07:26:24;;;;;;;6.65;3.80;;;;;;;20.77;81.85;98657.94;4485525;31;20153;-64
2023/06/18 07:28:51;;;;;;;4.97;3.75;;;;;;;20.69;78.51;98666.97;4485554;32;20164;-64
2023/06/18 07:31:19;;;;;;;5.93;4.07;;;;;;;20.64;79.26;98669.41;4485559;32;20104;-64
2023/06/18 07:33:46;;;;;;;7.53;4.10;;;;;;;20.82;78.94;98669.63;4485546;32;20157;-64
2023/06/18 07:36:13;;;;;;;5.03;3.70;;;;;;;20.97;80.18;98668.56;4485630;31;20122;-64
2023/06/18 07:38:41;;;;;;;4.65;3.22;;;;;;;21.08;79.74;98660.78;4485575;32;20114;-64
2023/06/18 07:41:08;;;;;;;6.00;3.80;;;;;;;21.32;78.37;98665.63;4485612;32;20450;-64
2023/06/18 07:43:35;;;;;;;7.72;3.70;;;;;;;21.48;79.07;98661.69;4485306;32;20524;-64
2023/06/18 07:46:02;;;;;;;6.28;3.90;;;;;;;21.49;78.31;98666.81;4485491;32;20136;-64
2023/06/18 07:48:30;;;;;;;5.05;3.90;;;;;;;21.42;78.02;98661.53;4485512;32;20084;-64
2023/06/18 07:50:57;;;;;;;6.28;4.07;;;;;;;21.54;74.50;98655.56;4485776;32;20138;-64
2023/06/18 07:53:25;;;;;;;6.00;3.70;;;;;;;21.50;74.74;98654.31;4485412;31;20192;-64
2023/06/18 07:55:52;;;;;;;5.30;4.25;;;;;;;21.53;76.31;98659.25;4485469;31;20093;-64
2023/06/18 07:58:20;;;;;;;6.47;3.22;;;;;;;21.63;76.30;98664.94;4485426;32;20118;-64
2023/06/18 08:00:47;;;;;;;7.18;3.55;;;;;;;21.78;71.79;98657.50;4485550;32;20133;-64
2023/06/18 08:03:15;;;;;;;6.03;3.20;;;;;;;21.92;72.72;98657.44;4485347;32;20171;-64
2023/06/18 08:05:42;;;;;;;3.70;2.97;;;;;;;21.88;72.69;98666.91;4485574;32;20096;-64
2023/06/18 08:08:09;;;;;;;5.87;2.90;;;;;;;21.83;65.75;98664.03;4485462;32;20423;-64
2023/06/18 08:10:36;;;;;;;4.12;3.30;;;;;;;21.92;62.56;98666.25;4485644;31;20100;-64
2023/06/18 08:13:05;;;;;;;5.47;3.30;;;;;;;21.95;65.74;98665.84;4485558;31;20122;-64
2023/06/18 08:15:32;;;;;;;4.18;3.00;;;;;;;22.06;62.33;98656.34;4485680;31;20465;-64
2023/06/18 08:17:59;;;;;;;3.53;2.58;;;;;;;22.26;62.24;98666.06;4485424;32;20133;-64
2023/06/18 08:20:27;;;;;;;4.18;2.78;;;;;;;22.33;63.96;98665.00;4485588;31;20080;-64
2023/06/18 08:22:54;;;;;;;3.60;2.87;;;;;;;22.48;63.70;98664.72;4485194;31;20100;-64
2023/06/18 08:25:22;;;;;;;4.20;2.87;;;;;;;22.53;62.36;98663.22;4485539;32;20154;-64
2023/06/18 08:27:49;;;;;;;2.90;2.30;;;;;;;22.76;60.64;98662.63;4485375;32;20144;-64
2023/06/18 08:30:16;;;;;;;3.30;2.53;;;;;;;22.70;60.90;98660.84;4485540;32;20122;-64
2023/06/18 08:32:44;;;;;;;8.10;3.10;;;;;;;22.70;60.31;98656.31;4485366;32;20269;-64
2023/06/18 08:35:11;;;;;;;3.78;2.80;;;;;;;22.79;58.72;98663.00;4485280;31;20096;-64
2023/06/18 08:37:38;;;;;;;4.78;2.70;;;;;;;22.66;59.18;98655.94;4485106;32;20104;-64
2023/06/18 08:40:07;;;;;;;4.45;2.72;;;;;;;22.80;59.79;98659.31;4485268;32;20453;-64
2023/06/18 08:42:34;;;;;;;4.12;2.50;;;;;;;22.87;58.97;98662.72;4484973;31;20151;-64
2023/06/18 08:45:01;;;;;;;3.00;2.55;;;;;;;22.90;58.92;98655.31;4485152;32;20152;-64
2023/06/18 08:47:32;;;;;;;3.12;2.28;;;;;;;23.03;61.26;98655.19;4485063;32;20130;-64
2023/06/18 08:49:59;;;;;;;4.20;2.78;;;;;;;23.31;63.00;98648.53;4483971;32;20088;-64
2023/06/18 08:52:30;;;;;;;3.60;2.92;;;;;;;23.34;56.45;98656.94;4485152;31;20122;-64
2023/06/18 08:55:02;;;;;;;4.28;3.58;;;;;;;23.34;57.74;98653.44;4485227;31;20409;-64
2023/06/18 08:57:48;;;;;;;3.40;2.47;;;;;;;23.46;55.06;98665.03;4484576;31;20449;-64
2023/06/18 09:00:16;;;;;;;3.20;2.72;;;;;;;23.41;55.18;98670.25;4483979;32;20129;-64
2023/06/18 09:02:43;;;;;;;3.30;2.62;;;;;;;23.46;54.79;98667.69;4483836;32;20132;-64
2023/06/18 09:05:11;;;;;;;2.92;2.33;;;;;;;23.51;51.98;98665.19;4484879;32;20148;-64
2023/06/18 09:07:38;;;;;;;2.95;2.60;;;;;;;23.56;51.45;98664.50;4485054;32;20157;-64
2023/06/18 09:10:06;;;;;;;2.47;1.98;;;;;;;23.45;50.58;98660.75;4484815;31;20088;-64
2023/06/18 09:12:33;;;;;;;2.05;1.75;;;;;;;23.57;52.87;98658.09;4483740;32;20144;-64
2023/06/18 09:15:00;;;;;;;2.53;2.10;;;;;;;23.68;49.21;98667.22;4483925;32;20101;-64
2023/06/18 09:17:28;;;;;;;4.60;2.10;;;;;;;23.67;47.41;98662.94;4484670;32;20505;-64
2023/06/18 09:19:56;;;;;;;3.08;2.62;;;;;;;23.87;47.13;98665.38;4484849;31;20118;-64
2023/06/18 09:22:23;;;;;;;3.08;1.90;;;;;;;23.75;48.46;98667.97;4484832;31;20100;-64
2023/06/18 09:24:58;;;;;;;2.40;2.03;;;;;;;24.01;48.18;98668.69;4484919;32;20221;-64
2023/06/18 09:27:32;;;;;;;3.92;2.15;;;;;;;23.97;45.26;98679.03;4484951;31;20115;-64
2023/06/18 09:30:00;;;;;;;2.78;2.28;;;;;;;24.05;48.21;98673.34;4484703;31;20490;-64
2023/06/18 09:32:28;;;;;;;3.62;2.62;;;;;;;24.05;47.20;98668.00;4485016;31;20111;-64
2023/06/18 09:34:55;;;;;;;3.22;2.20;;;;;;;24.22;47.85;98681.56;4484491;31;20547;-64
2023/06/18 09:37:22;;;;;;;2.80;2.30;;;;;;;24.39;46.92;98672.88;4484554;31;20160;-64
2023/06/18 09:39:53;;;;;;;2.45;2.15;;;;;;;24.70;48.13;98676.34;4484446;31;20156;-64
2023/06/18 09:42:28;;;;;;;2.67;2.45;;;;;;;24.48;46.25;98674.16;4484904;31;20128;-64
2023/06/18 09:44:55;;;;;;;3.55;2.75;;;;;;;24.40;44.71;98671.84;4484437;31;20383;-64
2023/06/18 09:47:23;;;;;;;3.20;2.60;;;;;;;24.45;46.29;98670.09;4483353;32;20122;-64
2023/06/18 09:49:50;;;;;;;3.00;2.30;;;;;;;24.60;46.32;98667.03;4484637;31;20525;-64
2023/06/18 09:52:18;;;;;;;4.70;2.70;;;;;;;24.68;46.17;98667.72;4484405;31;20100;-64
2023/06/18 09:54:46;;;;;;;5.60;2.65;;;;;;;25.02;46.42;98662.59;4483461;32;20176;-64
2023/06/18 09:57:15;;;;;;;2.78;2.50;;;;;;;24.83;44.88;98665.41;4484250;31;20157;-64
2023/06/18 09:59:43;;;;;;;6.55;3.15;;;;;;;24.88;45.32;98672.75;4484179;32;20204;-64
2023/06/18 10:02:13;;;;;;;5.15;3.33;;;;;;;24.87;45.91;98666.56;4484432;32;20153;-64
2023/06/18 10:04:41;;;;;;;3.78;3.08;;;;;;;24.85;42.49;98673.22;4484224;31;20454;-64
2023/06/18 10:07:21;;;;;;;3.47;2.95;;;;;;;24.80;42.50;98682.75;4484508;31;20119;-64
2023/06/18 10:09:48;;;;;;;3.37;2.67;;;;;;;24.70;42.45;98681.72;4486123;31;20538;-64
2023/06/18 10:12:16;;;;;;;3.45;3.08;;;;;;;25.00;45.18;98668.19;4485063;32;20133;-64
2023/06/18 10:14:44;;;;;;;5.47;3.55;;;;;;;24.93;42.36;98668.31;4469305;32;20109;-64
2023/06/18 10:17:23;;;;;;;4.95;2.90;;;;;;;25.06;45.96;98671.81;4469056;32;20109;-64
2023/06/18 10:20:05;;;;;;;4.20;3.00;;;;;;;24.86;44.48;98670.31;4470433;32;20106;-64
2023/06/18 10:22:48;;;;;;;5.37;3.28;;;;;;;24.95;44.45;98663.53;4470632;32;20084;-64
2023/06/18 10:25:15;;;;;;;3.70;2.90;;;;;;;24.96;43.83;98662.47;4470412;32;20085;-64
2023/06/18 10:27:43;;;;;;;3.85;3.10;;;;;;;25.16;46.21;98669.34;4470866;32;20089;-64
2023/06/18 10:30:11;;;;;;;3.58;2.90;;;;;;;25.01;44.15;98666.31;4470426;32;20084;-64
2023/06/18 10:32:42;;;;;;;3.17;2.70;;;;;;;25.27;47.07;98671.22;4470326;32;20093;-64
2023/06/18 10:35:12;;;;;;;6.90;3.00;;;;;;;25.11;44.89;98667.37;4470581;32;20127;-64
2023/06/18 10:37:42;;;;;;;3.05;2.53;;;;;;;25.19;45.13;98668.88;4470291;32;20123;-65
2023/06/18 10:40:10;;;;;;;4.18;2.85;;;;;;;25.31;43.56;98663.53;4469588;32;20108;-64
2023/06/18 10:42:37;;;;;;;4.37;3.08;;;;;;;25.27;45.10;98662.34;4470444;32;20470;-65
2023/06/18 10:45:12;;;;;;;3.92;3.30;;;;;;;25.43;42.48;98664.31;4470669;32;20108;-64
2023/06/18 10:47:41;;;;;;;3.78;3.03;;;;;;;25.38;44.38;98666.09;4470214;32;20160;-64
2023/06/18 10:50:12;;;;;;;4.15;3.50;;;;;;;25.45;45.47;98666.75;4470239;32;20097;-64
2023/06/18 10:52:41;;;;;;;4.25;3.03;;;;;;;25.39;43.37;98663.19;4470436;32;20158;-64
2023/06/18 10:55:20;;;;;;;4.20;3.37;;;;;;;25.40;42.95;98670.16;4470261;32;20085;-64
2023/06/18 10:57:51;;;;;;;4.87;3.50;;;;;;;25.71;44.75;98660.06;4470175;32;20156;-64
2023/06/18 11:00:30;;;;;;;4.05;3.40;;;;;;;25.67;43.80;98658.91;4470128;32;20485;-64
2023/06/18 11:03:06;;;;;;;5.22;3.08;;;;;;;25.41;44.12;98657.59;4470525;32;20153;-65
2023/06/18 11:05:34;;;;;;;3.53;2.87;;;;;;;25.53;42.39;98658.38;4470220;32;20077;-64
2023/06/18 11:08:02;;;;;;;3.70;2.80;;;;;;;25.81;44.72;98654.88;4470126;32;20608;-64
2023/06/18 11:10:34;;;;;;;3.95;3.12;;;;;;;25.65;44.65;98659.13;4469132;32;20186;-64
2023/06/18 11:13:03;;;;;;;5.37;3.17;;;;;;;26.11;43.01;98658.41;4475255;32;20092;-65
2023/06/18 11:15:32;;;;;;;3.78;3.00;;;;;;;26.01;44.80;98654.47;4485738;31;20104;-64
2023/06/18 11:18:02;;;;;;;5.62;3.20;;;;;;;26.10;44.20;98657.59;4485729;31;20112;-65
2023/06/18 11:20:33;;;;;;;4.00;2.90;;;;;;;26.02;43.39;98648.03;4485286;31;20088;-64
2023/06/18 11:23:01;;;;;;;3.60;3.10;;;;;;;25.75;43.91;98633.56;4485995;31;20558;-64
2023/06/18 11:25:29;;;;;;;5.70;3.17;;;;;;;25.94;43.09;98648.41;4484390;32;20157;-64
2023/06/18 11:28:02;;;;;;;5.32;3.67;;;;;;;25.96;45.59;98640.91;4485715;31;20149;-65
2023/06/18 11:30:31;;;;;;;;;;;;;;;25.89;46.03;98642.97;4474323;32;20089;-64
2023/06/18 11:33:00;;;;;;;6.10;3.53;;;;;;;25.80;45.83;98639.84;4486104;31;20394;-64
2023/06/18 11:35:31;;;;;;;6.50;3.40;;;;;;;25.89;47.51;98634.91;4485340;31;20112;-64